createdAt,value
2017-12-26T00:00:11.340Z,21.63
2017-12-26T00:00:42.980Z,21.63
2017-12-26T00:01:14.655Z,21.63
2017-12-26T00:01:46.304Z,21.65
2017-12-26T00:02:17.943Z,21.66
2017-12-26T00:02:49.812Z,21.67
2017-12-26T00:03:21.508Z,21.66
2017-12-26T00:03:53.147Z,21.68
2017-12-26T00:04:24.784Z,21.68
2017-12-26T00:04:56.430Z,21.71
2017-12-26T00:05:28.084Z,21.71
2017-12-26T00:05:59.716Z,21.71
2017-12-26T00:06:31.351Z,21.71
2017-12-26T00:07:02.988Z,21.73
2017-12-26T00:07:34.619Z,21.72
2017-12-26T00:08:06.255Z,21.73
2017-12-26T00:08:37.939Z,21.75
2017-12-26T00:09:09.584Z,21.75
2017-12-26T00:09:41.225Z,21.76
2017-12-26T00:10:12.928Z,21.77
2017-12-26T00:10:44.571Z,21.76
2017-12-26T00:11:16.212Z,21.76
2017-12-26T00:11:47.881Z,21.75
2017-12-26T00:12:19.516Z,21.75
2017-12-26T00:12:51.160Z,21.75
2017-12-26T00:13:22.805Z,21.69
2017-12-26T00:13:54.444Z,21.75
2017-12-26T00:14:26.079Z,21.74
2017-12-26T00:14:57.720Z,21.75
2017-12-26T00:15:29.416Z,21.75
2017-12-26T00:16:01.183Z,21.75
2017-12-26T00:16:33.073Z,21.76
2017-12-26T00:17:04.714Z,21.77
2017-12-26T00:17:36.352Z,21.77
2017-12-26T00:18:07.996Z,21.79
2017-12-26T00:18:39.632Z,21.80
2017-12-26T00:19:11.262Z,21.80
2017-12-26T00:19:42.901Z,21.80
2017-12-26T00:20:14.536Z,21.79
2017-12-26T00:20:46.216Z,21.78
2017-12-26T00:21:17.864Z,21.78
2017-12-26T00:21:49.550Z,21.78
2017-12-26T00:22:21.380Z,21.77
2017-12-26T00:22:53.141Z,21.75
2017-12-26T00:23:24.794Z,21.75
2017-12-26T00:23:56.435Z,21.75
2017-12-26T00:24:28.075Z,21.74
2017-12-26T00:25:00.017Z,21.75
2017-12-26T00:25:31.966Z,21.75
2017-12-26T00:26:03.915Z,21.73
2017-12-26T00:26:35.864Z,21.73
2017-12-26T00:27:07.814Z,21.74
2017-12-26T00:27:39.496Z,21.75
2017-12-26T00:28:11.127Z,21.74
2017-12-26T00:28:42.793Z,21.73
2017-12-26T00:29:14.427Z,21.71
2017-12-26T00:29:46.065Z,21.72
2017-12-26T00:30:17.703Z,21.72
2017-12-26T00:30:49.348Z,21.70
2017-12-26T00:31:20.983Z,21.70
2017-12-26T00:31:52.656Z,21.70
2017-12-26T00:32:24.542Z,21.67
2017-12-26T00:32:56.188Z,21.66
2017-12-26T00:33:27.831Z,21.65
2017-12-26T00:33:59.699Z,21.66
2017-12-26T00:34:31.415Z,21.67
2017-12-26T00:35:03.057Z,21.59
2017-12-26T00:35:35.005Z,21.65
2017-12-26T00:36:06.955Z,21.64
2017-12-26T00:36:38.594Z,21.63
2017-12-26T00:37:10.438Z,21.62
2017-12-26T00:37:42.188Z,21.61
2017-12-26T00:38:14.134Z,21.61
2017-12-26T00:38:46.085Z,21.63
2017-12-26T00:39:18.034Z,21.61
2017-12-26T00:39:49.673Z,21.61
2017-12-26T00:40:21.503Z,21.60
2017-12-26T00:40:53.267Z,21.59
2017-12-26T00:41:25.217Z,21.51
2017-12-26T00:41:56.863Z,21.59
2017-12-26T00:42:28.549Z,21.55
2017-12-26T00:43:00.193Z,21.57
2017-12-26T00:43:31.831Z,21.59
2017-12-26T00:44:03.463Z,21.56
2017-12-26T00:44:35.102Z,21.52
2017-12-26T00:45:06.788Z,21.53
2017-12-26T00:45:38.431Z,21.53
2017-12-26T00:46:10.068Z,21.53
2017-12-26T00:46:41.943Z,21.50
2017-12-26T00:47:13.580Z,21.43
2017-12-26T00:47:45.221Z,21.48
2017-12-26T00:48:16.859Z,21.47
2017-12-26T00:48:48.507Z,21.48
2017-12-26T00:49:20.459Z,21.47
2017-12-26T00:49:52.100Z,21.47
2017-12-26T00:50:23.778Z,21.46
2017-12-26T00:50:55.425Z,21.47
2017-12-26T00:51:27.103Z,21.47
2017-12-26T00:51:58.761Z,21.48
2017-12-26T00:52:30.409Z,21.47
2017-12-26T00:53:02.057Z,21.47
2017-12-26T00:53:33.902Z,21.47
2017-12-26T00:54:05.535Z,21.44
2017-12-26T00:54:37.175Z,21.45
2017-12-26T00:55:08.831Z,21.44
2017-12-26T00:55:40.430Z,21.44
2017-12-26T00:56:12.120Z,21.45
2017-12-26T00:56:43.767Z,21.44
2017-12-26T00:57:15.408Z,21.43
2017-12-26T00:57:47.043Z,21.41
2017-12-26T00:58:18.684Z,21.42
2017-12-26T00:58:50.325Z,21.40
2017-12-26T00:59:22.004Z,21.38
2017-12-26T00:59:53.644Z,21.39
2017-12-26T01:00:25.275Z,21.38
2017-12-26T01:00:56.915Z,21.38
2017-12-26T01:01:28.742Z,21.38
2017-12-26T01:02:00.384Z,21.37
2017-12-26T01:02:32.024Z,21.38
2017-12-26T01:03:03.764Z,21.37
2017-12-26T01:03:35.588Z,21.37
2017-12-26T01:04:07.355Z,21.38
2017-12-26T01:04:39.304Z,21.37
2017-12-26T01:05:10.991Z,21.38
2017-12-26T01:05:42.627Z,21.36
2017-12-26T01:06:14.264Z,21.37
2017-12-26T01:06:45.900Z,21.36
2017-12-26T01:07:17.537Z,21.34
2017-12-26T01:07:49.167Z,21.37
2017-12-26T01:08:20.804Z,21.35
2017-12-26T01:08:52.448Z,21.34
2017-12-26T01:09:24.120Z,21.34
2017-12-26T01:09:55.760Z,21.34
2017-12-26T01:10:27.640Z,21.25
2017-12-26T01:10:59.314Z,21.33
2017-12-26T01:11:31.139Z,21.33
2017-12-26T01:12:02.904Z,21.33
2017-12-26T01:12:34.853Z,21.34
2017-12-26T01:13:06.803Z,21.35
2017-12-26T01:13:38.681Z,21.35
2017-12-26T01:14:10.324Z,21.35
2017-12-26T01:14:41.960Z,21.34
2017-12-26T01:15:13.602Z,21.35
2017-12-26T01:15:45.238Z,21.35
2017-12-26T01:16:16.871Z,21.34
2017-12-26T01:16:48.508Z,21.34
2017-12-26T01:17:20.245Z,21.33
2017-12-26T01:17:51.888Z,21.34
2017-12-26T01:18:23.528Z,21.33
2017-12-26T01:18:55.164Z,21.33
2017-12-26T01:19:26.848Z,21.33
2017-12-26T01:19:58.479Z,21.35
2017-12-26T01:20:30.117Z,21.33
2017-12-26T01:21:01.796Z,21.36
2017-12-26T01:21:33.622Z,21.35
2017-12-26T01:22:05.260Z,21.36
2017-12-26T01:22:36.902Z,21.35
2017-12-26T01:23:08.540Z,21.35
2017-12-26T01:23:40.184Z,21.35
2017-12-26T01:24:11.898Z,21.37
2017-12-26T01:24:43.847Z,21.39
2017-12-26T01:25:15.795Z,21.39
2017-12-26T01:25:47.745Z,21.43
2017-12-26T01:26:19.693Z,21.43
2017-12-26T01:26:51.516Z,21.43
2017-12-26T01:27:23.156Z,21.42
2017-12-26T01:27:54.796Z,21.42
2017-12-26T01:28:26.440Z,21.41
2017-12-26T01:28:58.089Z,21.40
2017-12-26T01:29:29.783Z,21.41
2017-12-26T01:30:01.432Z,21.43
2017-12-26T01:30:33.067Z,21.43
2017-12-26T01:31:04.699Z,21.46
2017-12-26T01:31:36.332Z,21.46
2017-12-26T01:32:07.974Z,21.46
2017-12-26T01:32:39.649Z,21.45
2017-12-26T01:33:11.283Z,21.45
2017-12-26T01:33:42.915Z,21.45
2017-12-26T01:34:14.552Z,21.24
2017-12-26T01:34:46.512Z,21.46
2017-12-26T01:35:18.152Z,21.48
2017-12-26T01:35:49.788Z,21.48
2017-12-26T01:36:21.502Z,21.47
2017-12-26T01:36:53.339Z,21.48
2017-12-26T01:37:24.975Z,21.48
2017-12-26T01:37:56.737Z,21.47
2017-12-26T01:38:28.396Z,21.47
2017-12-26T01:39:00.328Z,21.48
2017-12-26T01:39:32.156Z,21.47
2017-12-26T01:40:03.800Z,21.47
2017-12-26T01:40:35.443Z,21.47
2017-12-26T01:41:07.203Z,21.47
2017-12-26T01:41:38.851Z,21.45
2017-12-26T01:42:10.545Z,21.43
2017-12-26T01:42:42.211Z,21.43
2017-12-26T01:43:14.078Z,21.43
2017-12-26T01:43:45.718Z,21.43
2017-12-26T01:44:17.490Z,21.44
2017-12-26T01:44:49.311Z,21.45
2017-12-26T01:45:20.957Z,21.43
2017-12-26T01:45:52.601Z,21.43
2017-12-26T01:46:24.230Z,21.41
2017-12-26T01:46:55.874Z,21.41
2017-12-26T01:47:27.514Z,21.41
2017-12-26T01:47:59.168Z,21.40
2017-12-26T01:48:31.107Z,21.32
2017-12-26T01:49:03.066Z,21.39
2017-12-26T01:49:34.754Z,21.41
2017-12-26T01:50:06.421Z,21.40
2017-12-26T01:50:38.056Z,21.38
2017-12-26T01:51:09.696Z,21.41
2017-12-26T01:51:41.340Z,21.39
2017-12-26T01:52:12.980Z,21.41
2017-12-26T01:52:44.622Z,21.41
2017-12-26T01:53:16.260Z,21.40
2017-12-26T01:53:47.900Z,21.40
2017-12-26T01:54:19.582Z,21.41
2017-12-26T01:54:51.225Z,21.40
2017-12-26T01:55:22.864Z,21.41
2017-12-26T01:55:54.503Z,21.40
2017-12-26T01:56:26.139Z,21.41
2017-12-26T01:56:57.815Z,21.44
2017-12-26T01:57:29.446Z,21.43
2017-12-26T01:58:01.084Z,21.42
2017-12-26T01:58:32.724Z,21.42
2017-12-26T01:59:04.356Z,21.43
2017-12-26T01:59:36.041Z,21.43
2017-12-26T02:00:07.732Z,21.43
2017-12-26T02:00:39.370Z,21.43
2017-12-26T02:01:11.006Z,21.41
2017-12-26T02:01:42.639Z,21.43
2017-12-26T02:02:14.279Z,21.42
2017-12-26T02:02:45.919Z,21.42
2017-12-26T02:03:17.560Z,21.42
2017-12-26T02:03:49.199Z,21.41
2017-12-26T02:04:20.836Z,21.41
2017-12-26T02:04:52.471Z,21.39
2017-12-26T02:05:24.171Z,21.31
2017-12-26T02:05:55.805Z,21.40
2017-12-26T02:06:27.446Z,21.40
2017-12-26T02:06:59.038Z,21.39
2017-12-26T02:07:30.687Z,21.39
2017-12-26T02:08:02.323Z,21.38
2017-12-26T02:08:33.964Z,21.38
2017-12-26T02:09:05.604Z,21.38
2017-12-26T02:09:37.239Z,21.38
2017-12-26T02:10:08.880Z,21.36
2017-12-26T02:10:40.560Z,21.38
2017-12-26T02:11:12.256Z,21.40
2017-12-26T02:11:43.902Z,21.43
2017-12-26T02:12:15.510Z,21.47
2017-12-26T02:12:47.144Z,21.49
2017-12-26T02:13:18.779Z,21.49
2017-12-26T02:13:50.416Z,21.52
2017-12-26T02:14:22.056Z,21.51
2017-12-26T02:14:53.700Z,21.51
2017-12-26T02:15:25.380Z,21.51
2017-12-26T02:15:57.060Z,21.52
2017-12-26T02:16:28.701Z,21.52
2017-12-26T02:17:00.340Z,21.51
2017-12-26T02:17:31.984Z,21.49
2017-12-26T02:18:03.631Z,21.49
2017-12-26T02:18:35.596Z,21.49
2017-12-26T02:19:07.238Z,21.48
2017-12-26T02:19:38.948Z,21.49
2017-12-26T02:20:10.633Z,21.50
2017-12-26T02:20:42.379Z,21.48
2017-12-26T02:21:14.012Z,21.47
2017-12-26T02:21:45.692Z,21.45
2017-12-26T02:22:17.327Z,21.45
2017-12-26T02:22:48.959Z,21.45
2017-12-26T02:23:20.595Z,21.44
2017-12-26T02:23:52.236Z,21.44
2017-12-26T02:24:23.871Z,21.46
2017-12-26T02:24:55.519Z,21.45
2017-12-26T02:25:27.157Z,21.46
2017-12-26T02:25:58.800Z,21.16
2017-12-26T02:26:30.436Z,21.46
2017-12-26T02:27:02.112Z,21.44
2017-12-26T02:27:33.744Z,21.44
2017-12-26T02:28:05.379Z,21.43
2017-12-26T02:28:37.015Z,21.42
2017-12-26T02:29:08.656Z,21.42
2017-12-26T02:29:40.296Z,21.42
2017-12-26T02:30:11.933Z,21.41
2017-12-26T02:30:43.574Z,21.41
2017-12-26T02:31:15.212Z,21.41
2017-12-26T02:31:46.903Z,21.41
2017-12-26T02:32:18.553Z,21.41
2017-12-26T02:32:50.191Z,21.42
2017-12-26T02:33:21.827Z,21.41
2017-12-26T02:33:53.463Z,21.43
2017-12-26T02:34:25.112Z,21.45
2017-12-26T02:34:56.755Z,21.43
2017-12-26T02:35:28.396Z,21.44
2017-12-26T02:36:00.036Z,21.44
2017-12-26T02:36:31.675Z,21.42
2017-12-26T02:37:03.372Z,21.42
2017-12-26T02:37:35.015Z,21.41
2017-12-26T02:38:06.662Z,21.41
2017-12-26T02:38:38.305Z,21.39
2017-12-26T02:39:10.045Z,21.30
2017-12-26T02:39:41.712Z,21.39
2017-12-26T02:40:13.372Z,21.39
2017-12-26T02:40:45.015Z,21.41
2017-12-26T02:41:16.643Z,21.40
2017-12-26T02:41:48.335Z,21.41
2017-12-26T02:42:20.004Z,21.40
2017-12-26T02:42:51.647Z,21.24
2017-12-26T02:43:23.281Z,21.39
2017-12-26T02:43:54.920Z,21.31
2017-12-26T02:44:26.561Z,21.39
2017-12-26T02:44:58.195Z,21.43
2017-12-26T02:45:29.868Z,21.41
2017-12-26T02:46:01.520Z,21.42
2017-12-26T02:46:33.152Z,21.41
2017-12-26T02:47:04.980Z,21.41
2017-12-26T02:47:36.672Z,21.44
2017-12-26T02:48:08.321Z,21.43
2017-12-26T02:48:39.959Z,21.43
2017-12-26T02:49:11.604Z,21.42
2017-12-26T02:49:43.243Z,21.42
2017-12-26T02:50:14.886Z,21.41
2017-12-26T02:50:46.524Z,21.43
2017-12-26T02:51:18.172Z,21.42
2017-12-26T02:51:50.044Z,21.42
2017-12-26T02:52:21.679Z,21.43
2017-12-26T02:52:53.360Z,21.42
2017-12-26T02:53:24.996Z,21.41
2017-12-26T02:53:56.632Z,21.39
2017-12-26T02:54:28.269Z,21.38
2017-12-26T02:54:59.903Z,21.41
2017-12-26T02:55:31.544Z,21.35
2017-12-26T02:56:03.185Z,21.41
2017-12-26T02:56:34.872Z,21.40
2017-12-26T02:57:06.507Z,21.41
2017-12-26T02:57:38.146Z,21.40
2017-12-26T02:58:09.834Z,21.39
2017-12-26T02:58:41.471Z,21.38
2017-12-26T02:59:13.112Z,21.38
2017-12-26T02:59:44.790Z,21.38
2017-12-26T03:00:16.434Z,21.37
2017-12-26T03:00:48.067Z,21.37
2017-12-26T03:01:19.708Z,21.36
2017-12-26T03:01:51.347Z,21.37
2017-12-26T03:02:22.992Z,21.35
2017-12-26T03:02:54.623Z,21.36
2017-12-26T03:03:26.260Z,21.37
2017-12-26T03:03:57.903Z,21.34
2017-12-26T03:04:29.543Z,21.34
2017-12-26T03:05:01.233Z,21.33
2017-12-26T03:05:32.943Z,21.35
2017-12-26T03:06:04.579Z,21.35
2017-12-26T03:06:36.213Z,21.34
2017-12-26T03:07:07.851Z,21.36
2017-12-26T03:07:39.483Z,21.29
2017-12-26T03:08:11.127Z,21.36
2017-12-26T03:08:42.768Z,21.35
2017-12-26T03:09:14.408Z,21.35
2017-12-26T03:09:46.039Z,21.35
2017-12-26T03:10:17.720Z,21.34
2017-12-26T03:10:49.352Z,21.35
2017-12-26T03:11:20.983Z,21.33
2017-12-26T03:11:52.611Z,21.35
2017-12-26T03:12:24.248Z,21.34
2017-12-26T03:12:55.883Z,21.33
2017-12-26T03:13:27.520Z,21.30
2017-12-26T03:13:59.150Z,21.32
2017-12-26T03:14:30.797Z,21.30
2017-12-26T03:15:02.439Z,21.28
2017-12-26T03:15:34.112Z,21.27
2017-12-26T03:16:05.748Z,21.27
2017-12-26T03:16:37.379Z,21.25
2017-12-26T03:17:09.031Z,21.24
2017-12-26T03:17:40.668Z,21.23
2017-12-26T03:18:12.337Z,21.22
2017-12-26T03:18:43.974Z,21.21
2017-12-26T03:19:15.608Z,21.21
2017-12-26T03:19:47.252Z,21.21
2017-12-26T03:20:18.991Z,21.20
2017-12-26T03:20:50.663Z,21.19
2017-12-26T03:21:22.295Z,21.20
2017-12-26T03:21:53.924Z,21.19
2017-12-26T03:22:25.596Z,21.19
2017-12-26T03:22:57.309Z,21.17
2017-12-26T03:23:28.944Z,21.17
2017-12-26T03:24:00.600Z,21.18
2017-12-26T03:24:32.241Z,21.16
2017-12-26T03:25:03.872Z,21.16
2017-12-26T03:25:35.543Z,21.15
2017-12-26T03:26:07.175Z,21.14
2017-12-26T03:26:38.804Z,21.03
2017-12-26T03:27:10.436Z,21.17
2017-12-26T03:27:42.076Z,21.18
2017-12-26T03:28:13.711Z,21.20
2017-12-26T03:28:45.344Z,21.21
2017-12-26T03:29:16.975Z,21.24
2017-12-26T03:29:48.606Z,21.24
2017-12-26T03:30:20.249Z,21.23
2017-12-26T03:30:51.888Z,21.24
2017-12-26T03:31:23.564Z,21.25
2017-12-26T03:31:55.200Z,21.24
2017-12-26T03:32:26.835Z,21.25
2017-12-26T03:32:58.467Z,21.26
2017-12-26T03:33:30.145Z,21.25
2017-12-26T03:34:01.775Z,21.24
2017-12-26T03:34:33.407Z,21.24
2017-12-26T03:35:05.044Z,21.21
2017-12-26T03:35:36.675Z,21.28
2017-12-26T03:36:08.354Z,21.28
2017-12-26T03:36:39.984Z,21.32
2017-12-26T03:37:11.625Z,21.31
2017-12-26T03:37:43.259Z,21.32
2017-12-26T03:38:14.891Z,21.32
2017-12-26T03:38:46.536Z,21.34
2017-12-26T03:39:18.214Z,21.36
2017-12-26T03:39:49.851Z,21.37
2017-12-26T03:40:21.478Z,21.38
2017-12-26T03:40:53.116Z,21.39
2017-12-26T03:41:24.748Z,21.40
2017-12-26T03:41:56.423Z,21.42
2017-12-26T03:42:28.107Z,21.40
2017-12-26T03:42:59.747Z,21.41
2017-12-26T03:43:31.387Z,21.40
2017-12-26T03:44:03.016Z,21.39
2017-12-26T03:44:34.827Z,21.41
2017-12-26T03:45:06.464Z,21.40
2017-12-26T03:45:38.105Z,21.39
2017-12-26T03:46:09.744Z,21.39
2017-12-26T03:46:41.383Z,21.39
2017-12-26T03:47:13.016Z,21.39
2017-12-26T03:47:44.689Z,21.40
2017-12-26T03:48:16.323Z,21.32
2017-12-26T03:48:47.950Z,21.38
2017-12-26T03:49:19.579Z,21.40
2017-12-26T03:49:51.215Z,21.38
2017-12-26T03:50:22.843Z,21.39
2017-12-26T03:50:54.480Z,21.40
2017-12-26T03:51:26.116Z,21.26
2017-12-26T03:51:57.746Z,21.39
2017-12-26T03:52:29.376Z,21.39
2017-12-26T03:53:01.048Z,21.39
2017-12-26T03:53:32.679Z,21.40
2017-12-26T03:54:04.307Z,21.41
2017-12-26T03:54:35.972Z,21.41
2017-12-26T03:55:07.603Z,21.41
2017-12-26T03:55:39.235Z,21.42
2017-12-26T03:56:10.872Z,21.42
2017-12-26T03:56:42.507Z,21.42
2017-12-26T03:57:14.134Z,21.42
2017-12-26T03:57:45.764Z,21.42
2017-12-26T03:58:17.437Z,21.43
2017-12-26T03:58:49.063Z,21.46
2017-12-26T03:59:20.695Z,21.47
2017-12-26T03:59:52.326Z,21.48
2017-12-26T04:00:23.959Z,21.50
2017-12-26T04:00:55.596Z,21.54
2017-12-26T04:01:27.231Z,21.62
2017-12-26T04:01:58.863Z,21.59
2017-12-26T04:02:30.495Z,21.57
2017-12-26T04:03:02.180Z,21.51
2017-12-26T04:03:33.812Z,21.45
2017-12-26T04:04:05.439Z,21.46
2017-12-26T04:04:37.106Z,21.54
2017-12-26T04:05:08.735Z,21.56
2017-12-26T04:05:40.375Z,21.53
2017-12-26T04:06:12.007Z,21.51
2017-12-26T04:06:43.639Z,21.50
2017-12-26T04:07:15.271Z,21.49
2017-12-26T04:07:46.908Z,21.49
2017-12-26T04:08:18.587Z,21.48
2017-12-26T04:08:50.223Z,21.47
2017-12-26T04:09:21.859Z,21.47
2017-12-26T04:09:53.491Z,21.46
2017-12-26T04:10:25.127Z,21.45
2017-12-26T04:10:56.759Z,21.44
2017-12-26T04:11:28.391Z,21.46
2017-12-26T04:12:00.031Z,21.46
2017-12-26T04:12:31.664Z,21.43
2017-12-26T04:13:03.295Z,21.43
2017-12-26T04:13:34.967Z,21.41
2017-12-26T04:14:06.599Z,21.42
2017-12-26T04:14:38.240Z,21.41
2017-12-26T04:15:09.871Z,21.42
2017-12-26T04:15:41.499Z,21.42
2017-12-26T04:16:13.187Z,21.40
2017-12-26T04:16:44.819Z,21.40
2017-12-26T04:17:16.452Z,21.42
2017-12-26T04:17:48.089Z,21.41
2017-12-26T04:18:19.723Z,21.40
2017-12-26T04:18:51.365Z,21.41
2017-12-26T04:19:22.998Z,21.41
2017-12-26T04:19:54.631Z,21.42
2017-12-26T04:20:26.260Z,21.41
2017-12-26T04:20:57.895Z,21.41
2017-12-26T04:21:29.569Z,21.38
2017-12-26T04:22:01.200Z,21.38
2017-12-26T04:22:32.827Z,21.37
2017-12-26T04:23:04.456Z,21.37
2017-12-26T04:23:36.091Z,21.38
2017-12-26T04:24:07.724Z,21.38
2017-12-26T04:24:39.360Z,21.40
2017-12-26T04:25:11.036Z,21.40
2017-12-26T04:25:42.672Z,21.41
2017-12-26T04:26:14.348Z,21.43
2017-12-26T04:26:45.984Z,21.43
2017-12-26T04:27:17.698Z,21.43
2017-12-26T04:27:49.327Z,21.43
2017-12-26T04:28:20.964Z,21.44
2017-12-26T04:28:52.603Z,21.42
2017-12-26T04:29:24.238Z,21.39
2017-12-26T04:29:55.871Z,21.37
2017-12-26T04:30:27.552Z,21.38
2017-12-26T04:30:59.186Z,21.35
2017-12-26T04:31:30.825Z,21.37
2017-12-26T04:32:02.459Z,21.36
2017-12-26T04:32:34.096Z,21.34
2017-12-26T04:33:05.743Z,21.33
2017-12-26T04:33:37.387Z,21.32
2017-12-26T04:34:09.019Z,21.34
2017-12-26T04:34:40.659Z,21.32
2017-12-26T04:35:12.335Z,21.33
2017-12-26T04:35:43.967Z,21.33
2017-12-26T04:36:15.798Z,21.32
2017-12-26T04:36:47.435Z,21.29
2017-12-26T04:37:19.068Z,21.30
2017-12-26T04:37:50.712Z,21.30
2017-12-26T04:38:22.343Z,21.30
2017-12-26T04:38:53.975Z,21.30
2017-12-26T04:39:25.611Z,21.31
2017-12-26T04:39:57.248Z,21.31
2017-12-26T04:40:28.892Z,21.29
2017-12-26T04:41:00.536Z,21.28
2017-12-26T04:41:32.225Z,21.31
2017-12-26T04:42:03.855Z,21.32
2017-12-26T04:42:35.487Z,21.34
2017-12-26T04:43:07.119Z,21.34
2017-12-26T04:43:38.751Z,21.36
2017-12-26T04:44:10.384Z,21.36
2017-12-26T04:44:42.023Z,21.34
2017-12-26T04:45:13.660Z,21.32
2017-12-26T04:45:45.292Z,21.32
2017-12-26T04:46:16.923Z,21.30
2017-12-26T04:46:48.594Z,21.29
2017-12-26T04:47:20.235Z,21.31
2017-12-26T04:47:51.872Z,21.31
2017-12-26T04:48:23.540Z,21.29
2017-12-26T04:48:55.171Z,21.28
2017-12-26T04:49:26.804Z,21.28
2017-12-26T04:49:58.492Z,21.28
2017-12-26T04:50:30.124Z,21.28
2017-12-26T04:51:01.755Z,21.28
2017-12-26T04:51:33.389Z,21.28
2017-12-26T04:52:05.166Z,21.28
2017-12-26T04:52:36.803Z,21.26
2017-12-26T04:53:08.444Z,21.27
2017-12-26T04:53:40.081Z,21.28
2017-12-26T04:54:11.720Z,21.28
2017-12-26T04:54:43.352Z,21.27
2017-12-26T04:55:14.984Z,21.30
2017-12-26T04:55:46.755Z,21.29
2017-12-26T04:56:18.397Z,21.30
2017-12-26T04:56:50.031Z,21.28
2017-12-26T04:57:21.663Z,21.29
2017-12-26T04:57:53.300Z,21.31
2017-12-26T04:58:24.931Z,21.30
2017-12-26T04:58:56.564Z,21.32
2017-12-26T04:59:28.195Z,21.30
2017-12-26T04:59:59.828Z,21.30
2017-12-26T05:00:31.455Z,21.28
2017-12-26T05:01:03.144Z,21.32
2017-12-26T05:01:34.783Z,21.33
2017-12-26T05:02:06.415Z,21.32
2017-12-26T05:02:38.047Z,21.31
2017-12-26T05:03:09.689Z,21.30
2017-12-26T05:03:41.322Z,21.30
2017-12-26T05:04:13.022Z,21.32
2017-12-26T05:04:44.663Z,21.34
2017-12-26T05:05:16.335Z,21.34
2017-12-26T05:05:47.968Z,21.33
2017-12-26T05:06:19.599Z,21.31
2017-12-26T05:06:51.229Z,21.33
2017-12-26T05:07:22.914Z,21.34
2017-12-26T05:07:54.548Z,21.33
2017-12-26T05:08:26.184Z,21.35
2017-12-26T05:08:57.815Z,21.33
2017-12-26T05:09:29.443Z,21.35
2017-12-26T05:10:01.080Z,21.35
2017-12-26T05:10:32.711Z,21.36
2017-12-26T05:11:04.344Z,21.36
2017-12-26T05:11:35.979Z,21.36
2017-12-26T05:12:07.620Z,21.35
2017-12-26T05:12:39.300Z,21.36
2017-12-26T05:13:10.935Z,21.37
2017-12-26T05:13:42.572Z,21.38
2017-12-26T05:14:14.204Z,21.40
2017-12-26T05:14:45.835Z,21.34
2017-12-26T05:15:17.464Z,21.41
2017-12-26T05:15:49.111Z,21.45
2017-12-26T05:16:20.747Z,21.47
2017-12-26T05:16:52.380Z,21.49
2017-12-26T05:17:24.012Z,21.50
2017-12-26T05:17:55.690Z,21.50
2017-12-26T05:18:27.362Z,21.48
2017-12-26T05:18:59.032Z,21.48
2017-12-26T05:19:30.659Z,21.47
2017-12-26T05:20:02.297Z,21.45
2017-12-26T05:20:33.932Z,21.47
2017-12-26T05:21:05.572Z,21.46
2017-12-26T05:21:37.204Z,21.47
2017-12-26T05:22:08.837Z,21.45
2017-12-26T05:22:40.468Z,21.46
2017-12-26T05:23:12.147Z,21.47
2017-12-26T05:23:43.778Z,21.47
2017-12-26T05:24:15.419Z,21.47
2017-12-26T05:24:47.051Z,21.49
2017-12-26T05:25:18.687Z,21.48
2017-12-26T05:25:50.363Z,21.48
2017-12-26T05:26:21.994Z,21.49
2017-12-26T05:26:53.623Z,21.49
2017-12-26T05:27:25.268Z,21.49
2017-12-26T05:27:56.912Z,21.48
2017-12-26T05:28:28.544Z,21.45
2017-12-26T05:29:00.179Z,21.44
2017-12-26T05:29:31.859Z,21.47
2017-12-26T05:30:03.491Z,21.47
2017-12-26T05:30:35.255Z,21.49
2017-12-26T05:31:06.888Z,21.51
2017-12-26T05:31:38.519Z,21.50
2017-12-26T05:32:10.148Z,21.49
2017-12-26T05:32:41.779Z,21.49
2017-12-26T05:33:13.416Z,21.48
2017-12-26T05:33:45.048Z,21.48
2017-12-26T05:34:16.680Z,21.48
2017-12-26T05:34:48.359Z,21.48
2017-12-26T05:35:19.993Z,21.46
2017-12-26T05:35:51.627Z,21.46
2017-12-26T05:36:23.304Z,21.45
2017-12-26T05:36:54.935Z,21.44
2017-12-26T05:37:26.572Z,21.44
2017-12-26T05:37:58.204Z,21.37
2017-12-26T05:38:29.836Z,21.43
2017-12-26T05:39:01.472Z,21.41
2017-12-26T05:39:33.114Z,21.42
2017-12-26T05:40:04.788Z,21.46
2017-12-26T05:40:36.423Z,21.45
2017-12-26T05:41:08.054Z,21.46
2017-12-26T05:41:39.688Z,21.44
2017-12-26T05:42:11.420Z,21.43
2017-12-26T05:42:43.065Z,21.40
2017-12-26T05:43:14.712Z,21.42
2017-12-26T05:43:46.350Z,21.41
2017-12-26T05:44:17.980Z,21.43
2017-12-26T05:44:49.612Z,21.42
2017-12-26T05:45:21.246Z,21.39
2017-12-26T05:45:52.876Z,21.40
2017-12-26T05:46:24.507Z,21.39
2017-12-26T05:46:56.144Z,21.40
2017-12-26T05:47:27.820Z,21.39
2017-12-26T05:47:59.455Z,21.39
2017-12-26T05:48:31.093Z,21.40
2017-12-26T05:49:02.766Z,21.39
2017-12-26T05:49:34.395Z,21.39
2017-12-26T05:50:06.028Z,21.37
2017-12-26T05:50:37.661Z,21.36
2017-12-26T05:51:09.304Z,21.35
2017-12-26T05:51:40.939Z,21.36
2017-12-26T05:52:12.612Z,21.33
2017-12-26T05:52:44.296Z,21.33
2017-12-26T05:53:15.927Z,21.32
2017-12-26T05:53:47.576Z,21.32
2017-12-26T05:54:19.212Z,21.32
2017-12-26T05:54:50.843Z,21.34
2017-12-26T05:55:22.475Z,21.33
2017-12-26T05:55:54.108Z,21.35
2017-12-26T05:56:25.745Z,21.32
2017-12-26T05:56:57.379Z,21.33
2017-12-26T05:57:29.009Z,21.32
2017-12-26T05:58:00.639Z,21.32
2017-12-26T05:58:32.271Z,21.34
2017-12-26T05:59:03.908Z,21.34
2017-12-26T05:59:35.552Z,21.32
2017-12-26T06:00:07.191Z,21.31
2017-12-26T06:00:38.827Z,21.29
2017-12-26T06:01:10.458Z,21.27
2017-12-26T06:01:42.092Z,21.27
2017-12-26T06:02:13.727Z,21.27
2017-12-26T06:02:45.359Z,21.26
2017-12-26T06:03:17.036Z,21.24
2017-12-26T06:03:48.726Z,21.24
2017-12-26T06:04:20.363Z,21.25
2017-12-26T06:04:52.008Z,21.27
2017-12-26T06:05:23.649Z,21.27
2017-12-26T06:05:55.288Z,21.25
2017-12-26T06:06:26.921Z,21.27
2017-12-26T06:06:58.564Z,21.28
2017-12-26T06:07:30.205Z,21.28
2017-12-26T06:08:01.867Z,21.28
2017-12-26T06:08:33.499Z,21.27
2017-12-26T06:09:05.176Z,21.27
2017-12-26T06:09:36.843Z,21.26
2017-12-26T06:10:08.487Z,21.25
2017-12-26T06:10:40.124Z,21.26
2017-12-26T06:11:11.801Z,21.25
2017-12-26T06:11:43.432Z,21.25
2017-12-26T06:12:15.063Z,21.26
2017-12-26T06:12:46.694Z,21.26
2017-12-26T06:13:18.323Z,21.25
2017-12-26T06:13:50.016Z,21.23
2017-12-26T06:14:21.648Z,21.24
2017-12-26T06:14:53.320Z,21.24
2017-12-26T06:15:24.985Z,21.23
2017-12-26T06:15:56.610Z,21.22
2017-12-26T06:16:28.243Z,21.23
2017-12-26T06:16:59.936Z,21.25
2017-12-26T06:17:31.571Z,21.25
2017-12-26T06:18:03.212Z,21.26
2017-12-26T06:18:34.843Z,21.25
2017-12-26T06:19:06.475Z,21.24
2017-12-26T06:19:38.104Z,21.24
2017-12-26T06:20:09.743Z,21.24
2017-12-26T06:20:41.388Z,21.26
2017-12-26T06:21:13.020Z,21.27
2017-12-26T06:21:44.651Z,21.28
2017-12-26T06:22:16.344Z,21.28
2017-12-26T06:22:47.984Z,21.29
2017-12-26T06:23:19.619Z,21.28
2017-12-26T06:23:51.313Z,21.29
2017-12-26T06:24:22.950Z,21.27
2017-12-26T06:24:54.578Z,21.28
2017-12-26T06:25:26.211Z,21.27
2017-12-26T06:25:57.847Z,21.27
2017-12-26T06:26:29.520Z,21.27
2017-12-26T06:27:01.167Z,21.26
2017-12-26T06:27:32.839Z,21.28
2017-12-26T06:28:04.471Z,21.27
2017-12-26T06:28:36.105Z,21.27
2017-12-26T06:29:07.743Z,21.25
2017-12-26T06:29:39.379Z,21.24
2017-12-26T06:30:11.008Z,21.26
2017-12-26T06:30:42.644Z,21.27
2017-12-26T06:31:14.285Z,21.27
2017-12-26T06:31:45.944Z,21.26
2017-12-26T06:32:17.576Z,21.25
2017-12-26T06:32:49.258Z,21.27
2017-12-26T06:33:20.940Z,21.27
2017-12-26T06:33:52.583Z,21.27
2017-12-26T06:34:24.228Z,21.27
2017-12-26T06:34:55.864Z,21.28
2017-12-26T06:35:27.496Z,21.28
2017-12-26T06:35:59.130Z,21.28
2017-12-26T06:36:30.764Z,21.28
2017-12-26T06:37:02.408Z,21.28
2017-12-26T06:37:34.051Z,21.28
2017-12-26T06:38:05.723Z,21.29
2017-12-26T06:38:37.355Z,21.32
2017-12-26T06:39:08.987Z,21.32
2017-12-26T06:39:40.625Z,21.33
2017-12-26T06:40:12.427Z,21.34
2017-12-26T06:40:44.108Z,21.35
2017-12-26T06:41:15.743Z,21.34
2017-12-26T06:41:47.376Z,21.34
2017-12-26T06:42:19.007Z,21.35
2017-12-26T06:42:50.635Z,21.35
2017-12-26T06:43:22.273Z,21.35
2017-12-26T06:43:53.910Z,21.35
2017-12-26T06:44:25.540Z,21.36
2017-12-26T06:44:57.171Z,21.34
2017-12-26T06:45:28.807Z,21.25
2017-12-26T06:46:00.484Z,21.38
2017-12-26T06:46:32.128Z,21.39
2017-12-26T06:47:03.763Z,21.40
2017-12-26T06:47:35.391Z,21.41